Time;durP1;ratioP1;P1;durP2;ratioP2;P2;SDS_P1;SDS_P2;PMS_P1;PMS_P2;Temp;Humidity;BMP_temperature;BMP_pressure;BME280_temperature;BME280_humidity;BME280_pressure;Samples;Min_cycle;Max_cycle;Signal;HPM_P1;HPM_P2
2023/06/24 00:02:04;;;;;;;;;7.67;6.00;;;;;22.46;68.26;100953.19;5063514;28;45394;-73
2023/06/24 00:04:29;;;;;;;;;6.00;5.67;;;;;22.44;67.83;100950.56;5045183;28;45313;-73
2023/06/24 00:06:58;;;;;;;;;8.67;8.00;;;;;22.38;68.34;100937.34;5045672;28;45533;-73
2023/06/24 00:09:25;;;;;;;;;6.00;5.33;;;;;22.39;68.37;100947.06;5063427;28;45627;-72
2023/06/24 00:11:51;;;;;;;;;8.00;7.00;;;;;22.31;68.45;100938.31;5063616;28;45453;-72
2023/06/24 00:14:16;;;;;;;;;7.33;7.00;;;;;22.35;68.85;100947.16;5063563;28;45477;-73
2023/06/24 00:16:42;;;;;;;;;5.33;5.00;;;;;22.32;69.00;100941.84;5045575;28;45555;-73
2023/06/24 00:19:08;;;;;;;;;8.00;8.00;;;;;22.19;68.89;100927.78;5063319;28;46139;-73
2023/06/24 00:21:34;;;;;;;;;8.00;7.00;;;;;22.03;69.34;100933.28;5063495;28;45481;-73
2023/06/24 00:24:04;;;;;;;;;9.00;6.67;;;;;22.00;69.76;100941.31;5045296;28;45482;-73
2023/06/24 00:26:30;;;;;;;;;6.67;6.00;;;;;21.89;69.29;100935.22;5063484;28;45508;-73
2023/06/24 00:28:55;;;;;;;;;7.00;7.00;;;;;21.92;69.50;100945.78;5063145;28;45338;-72
2023/06/24 00:31:21;;;;;;;;;10.33;8.00;;;;;21.91;69.46;100945.84;5063673;28;45425;-73
2023/06/24 00:33:47;;;;;;;;;6.67;6.33;;;;;21.74;69.84;100925.59;5063465;28;45465;-74
2023/06/24 00:36:13;;;;;;;;;7.67;7.33;;;;;21.73;69.67;100936.28;5063445;28;45461;-74
2023/06/24 00:38:39;;;;;;;;;8.00;8.00;;;;;21.78;69.77;100939.75;5063047;28;45252;-74
2023/06/24 00:41:06;;;;;;;;;9.33;9.00;;;;;21.74;69.73;100924.72;5062887;28;45483;-73
2023/06/24 00:43:31;;;;;;;;;8.67;8.67;;;;;21.69;69.73;100926.56;5063155;28;45304;-74
2023/06/24 00:45:57;;;;;;;;;11.67;8.00;;;;;21.65;69.35;100931.91;5063225;28;45312;-73
2023/06/24 00:48:24;;;;;;;;;12.67;10.00;;;;;21.67;69.51;100923.03;5063152;28;45493;-74
2023/06/24 00:50:50;;;;;;;;;9.00;9.00;;;;;21.63;69.57;100922.19;5063073;28;45425;-73
2023/06/24 00:53:16;;;;;;;;;7.67;7.00;;;;;21.54;70.11;100928.44;5063047;28;45221;-74
2023/06/24 00:55:42;;;;;;;;;9.67;9.67;;;;;21.39;69.70;100902.88;5061368;28;45484;-73
2023/06/24 00:58:09;;;;;;;;;11.33;8.33;;;;;21.43;70.89;100919.72;5041274;28;47827;-73
2023/06/24 01:00:34;;;;;;;;;7.33;7.00;;;;;21.43;71.37;100919.72;5059562;28;45483;-74
2023/06/24 01:03:00;;;;;;;;;8.00;7.33;;;;;21.44;70.35;100903.72;5059708;28;45415;-73
2023/06/24 01:05:28;;;;;;;;;7.67;6.00;;;;;21.54;70.16;100922.25;5060076;28;45243;-73
2023/06/24 01:07:55;;;;;;;;;7.67;7.00;;;;;21.55;69.71;100914.28;5059601;28;46178;-73
2023/06/24 01:10:23;;;;;;;;;8.33;7.00;;;;;21.44;69.89;100913.47;5059388;28;45469;-73
2023/06/24 01:12:49;;;;;;;;;8.00;8.00;;;;;21.48;70.14;100917.88;5059445;28;45468;-74
2023/06/24 01:15:16;;;;;;;;;7.67;7.67;;;;;21.45;69.71;100901.97;5059636;28;45262;-73
2023/06/24 01:18:02;;;;;;;;;9.67;7.33;;;;;21.56;69.62;100916.03;5041076;28;45423;-73
2023/06/24 01:20:36;;;;;;;;;8.33;7.33;;;;;21.55;69.41;100919.59;5059019;28;45430;-73
2023/06/24 01:23:55;;;;;;;;;8.33;8.33;;;;;21.43;69.52;100917.94;5059085;28;45196;-73
2023/06/24 01:26:29;;;;;;;;;10.33;9.33;;;;;21.40;69.70;100914.38;5016793;28;45487;-73
2023/06/24 01:29:08;;;;;;;;;8.67;8.33;;;;;21.40;70.11;100917.03;5057995;28;45318;-74
2023/06/24 01:31:48;;;;;;;;;9.33;7.67;;;;;21.36;70.97;100912.63;5040888;28;45479;-74
2023/06/24 01:34:57;;;;;;;;;7.33;7.33;;;;;21.29;70.88;100916.22;5041003;28;45245;-74
2023/06/24 01:37:28;;;;;;;;;9.33;8.00;;;;;21.29;70.06;100895.88;5050007;28;45249;-73
2023/06/24 01:40:10;;;;;;;;;10.00;8.00;;;;;21.33;69.30;100902.03;5059251;28;45432;-74
2023/06/24 01:42:39;;;;;;;;;7.00;7.00;;;;;21.32;69.14;100897.63;5058893;28;45497;-73
2023/06/24 01:45:09;;;;;;;;;9.33;8.33;;;;;21.38;68.89;100905.53;5058904;28;45279;-73
2023/06/24 01:47:36;;;;;;;;;7.67;7.00;;;;;21.37;68.67;100901.13;5059081;28;45251;-74
2023/06/24 01:50:03;;;;;;;;;7.67;7.67;;;;;21.34;69.02;100898.47;5058769;28;45588;-73
2023/06/24 01:52:30;;;;;;;;;9.67;8.67;;;;;21.30;69.31;100888.78;5040938;28;45474;-73
2023/06/24 01:54:58;;;;;;;;;9.67;8.33;;;;;21.21;70.63;100887.09;5059004;28;45550;-74
2023/06/24 01:57:26;;;;;;;;;10.00;8.33;;;;;21.23;69.50;100895.94;5058734;28;45444;-74
2023/06/24 01:59:55;;;;;;;;;10.00;8.33;;;;;21.18;70.43;100895.06;5040133;28;46486;-73
2023/06/24 02:02:21;;;;;;;;;6.33;6.33;;;;;20.96;69.75;100894.38;5058456;28;45510;-73
2023/06/24 02:04:49;;;;;;;;;9.67;8.33;;;;;20.79;70.58;100900.69;5040596;28;45224;-73
2023/06/24 02:07:18;;;;;;;;;9.67;8.33;;;;;20.56;71.12;100894.59;5058229;28;45391;-73
2023/06/24 02:09:45;;;;;;;;;7.67;7.67;;;;;20.46;71.39;100893.75;5058185;28;46003;-73
2023/06/24 02:12:12;;;;;;;;;9.67;9.67;;;;;20.40;71.76;100891.13;5058480;28;45632;-73
2023/06/24 02:14:39;;;;;;;;;7.33;6.00;;;;;20.35;71.92;100883.22;5040270;28;45350;-73
2023/06/24 02:17:08;;;;;;;;;8.67;8.33;;;;;20.50;72.11;100899.94;5058662;28;45387;-73
2023/06/24 02:19:35;;;;;;;;;6.33;6.33;;;;;20.52;71.59;100880.44;5058152;28;46027;-73
2023/06/24 02:22:02;;;;;;;;;11.00;10.67;;;;;20.62;71.46;100887.50;5058564;28;45473;-73
2023/06/24 02:24:29;;;;;;;;;12.67;11.33;;;;;20.65;72.40;100891.91;5058731;28;45453;-73
2023/06/24 02:26:58;;;;;;;;;14.33;11.33;;;;;20.46;72.72;100875.19;5058331;28;45575;-73
2023/06/24 02:29:27;;;;;;;;;13.33;11.67;;;;;20.39;73.53;100892.91;5057952;28;46074;-73
2023/06/24 02:31:52;;;;;;;;;12.00;11.00;;;;;20.23;73.17;100884.16;5058074;28;45509;-73
2023/06/24 02:34:18;;;;;;;;;11.00;10.33;;;;;20.22;73.43;100890.31;5058239;28;45418;-73
2023/06/24 02:36:43;;;;;;;;;12.33;10.67;;;;;20.24;73.37;100882.38;5058221;28;45509;-73
2023/06/24 02:39:09;;;;;;;;;9.67;8.67;;;;;20.19;73.49;100894.75;5058004;28;46165;-73
2023/06/24 02:41:36;;;;;;;;;10.67;10.67;;;;;20.21;73.39;100887.66;5039738;28;45434;-73
2023/06/24 02:44:01;;;;;;;;;8.33;7.33;;;;;20.18;72.66;100874.44;5058318;28;45423;-73
2023/06/24 02:46:29;;;;;;;;;9.67;7.33;;;;;20.28;71.78;100884.13;5057943;28;45472;-73
2023/06/24 02:48:56;;;;;;;;;9.33;9.00;;;;;20.26;72.02;100869.97;5039672;28;45534;-73
2023/06/24 02:51:22;;;;;;;;;8.00;7.33;;;;;20.25;72.10;100870.84;5039721;28;45501;-73
2023/06/24 02:53:49;;;;;;;;;7.33;7.33;;;;;20.29;71.96;100875.25;5057784;28;45276;-74
2023/06/24 02:56:20;;;;;;;;;9.67;9.00;;;;;20.32;71.97;100871.72;5057939;28;45420;-73
2023/06/24 02:58:47;;;;;;;;;9.67;9.33;;;;;20.33;71.94;100869.03;5057485;28;45263;-73
2023/06/24 03:01:15;;;;;;;;;11.00;10.67;;;;;20.26;72.57;100860.25;5039425;28;45550;-73
2023/06/24 03:03:42;;;;;;;;;11.00;8.67;;;;;20.30;72.36;100866.41;5057781;28;45359;-73
2023/06/24 03:06:12;;;;;;;;;9.33;8.67;;;;;20.31;72.00;100870.81;5039667;28;45582;-73
2023/06/24 03:08:38;;;;;;;;;6.67;6.67;;;;;20.30;71.63;100858.47;5057474;28;46251;-73
2023/06/24 03:11:04;;;;;;;;;9.67;9.00;;;;;20.26;71.39;100869.97;5057742;28;45295;-73
2023/06/24 03:13:30;;;;;;;;;9.00;8.33;;;;;20.11;71.43;100870.03;5057753;28;45478;-73
2023/06/24 03:15:55;;;;;;;;;11.67;10.00;;;;;19.97;71.39;100870.09;5039520;28;45570;-73
2023/06/24 03:18:21;;;;;;;;;10.00;7.67;;;;;19.74;72.16;100852.50;5056974;28;45990;-74
2023/06/24 03:20:47;;;;;;;;;15.00;11.67;;;;;19.67;72.27;100848.94;5057310;28;45402;-73
2023/06/24 03:23:12;;;;;;;;;16.33;11.00;;;;;19.66;73.03;100865.72;5039428;28;45396;-73
2023/06/24 03:25:38;;;;;;;;;14.00;11.33;;;;;19.57;73.59;100856.91;5057554;28;45538;-73
2023/06/24 03:28:03;;;;;;;;;11.00;9.00;;;;;19.57;73.68;100854.25;5057483;28;45473;-73
2023/06/24 03:30:29;;;;;;;;;14.67;12.67;;;;;19.54;74.20;100854.28;5057295;28;45479;-73
2023/06/24 03:32:55;;;;;;;;;10.67;9.00;;;;;19.49;74.23;100854.28;5039437;28;45258;-73
2023/06/24 03:35:22;;;;;;;;;15.00;11.67;;;;;19.50;74.58;100853.41;5057270;28;45219;-73
2023/06/24 03:37:48;;;;;;;;;10.67;10.67;;;;;19.42;75.36;100837.50;5038877;28;47001;-73
2023/06/24 03:40:13;;;;;;;;;13.00;10.00;;;;;19.51;75.09;100841.91;5056951;28;45481;-73
2023/06/24 03:42:39;;;;;;;;;17.67;11.33;;;;;19.62;75.66;100847.19;5057170;28;45521;-73
2023/06/24 03:45:05;;;;;;;;;12.67;12.33;;;;;19.67;75.99;100850.69;5039509;28;45307;-73
2023/06/24 03:47:31;;;;;;;;;10.00;9.00;;;;;19.62;75.40;100832.16;5057222;28;45876;-73
2023/06/24 03:49:57;;;;;;;;;12.33;11.00;;;;;19.81;74.68;100842.75;5056991;28;45462;-73
2023/06/24 03:52:22;;;;;;;;;11.33;9.00;;;;;19.86;73.84;100847.16;5038931;28;45445;-73
2023/06/24 03:54:47;;;;;;;;;13.00;11.33;;;;;19.81;73.97;100834.78;5057385;28;45390;-73
2023/06/24 03:57:13;;;;;;;;;10.67;8.33;;;;;19.78;73.71;100827.75;5056983;28;45862;-73
2023/06/24 03:59:39;;;;;;;;;11.67;10.67;;;;;19.64;74.24;100819.78;5038700;28;45443;-73
2023/06/24 04:02:10;;;;;;;;;11.67;10.00;;;;;19.66;73.97;100825.97;5039162;28;45288;-74
2023/06/24 04:04:36;;;;;;;;;11.33;10.67;;;;;19.71;74.30;100831.28;5057418;28;45513;-73
2023/06/24 04:07:02;;;;;;;;;8.00;7.33;;;;;19.66;73.78;100828.63;5038430;28;47807;-73
2023/06/24 04:09:29;;;;;;;;;11.00;10.00;;;;;19.75;73.36;100832.16;5056969;28;45564;-73
2023/06/24 04:11:54;;;;;;;;;9.00;9.00;;;;;19.82;72.96;100833.91;5056822;28;45502;-73
2023/06/24 04:14:20;;;;;;;;;8.67;8.33;;;;;19.74;72.86;100823.34;5038771;28;45431;-74
2023/06/24 04:16:45;;;;;;;;;10.00;8.67;;;;;19.80;72.32;100835.69;5056594;28;45596;-72
2023/06/24 04:19:11;;;;;;;;;9.67;8.00;;;;;19.77;72.20;100831.25;5056762;28;45171;-73
2023/06/24 04:21:37;;;;;;;;;9.67;9.00;;;;;19.83;72.33;100827.72;5056944;28;45409;-74
2023/06/24 04:24:03;;;;;;;;;10.00;9.00;;;;;19.82;72.58;100823.31;5056874;28;45568;-73
2023/06/24 04:26:29;;;;;;;;;10.33;10.00;;;;;19.94;72.47;100825.91;5056613;28;45509;-73
2023/06/24 04:28:54;;;;;;;;;10.67;9.00;;;;;20.00;72.53;100825.88;5056573;28;45348;-73
2023/06/24 04:31:20;;;;;;;;;10.00;9.67;;;;;19.94;72.26;100806.47;5057786;28;45378;-74
2023/06/24 04:33:45;;;;;;;;;8.67;8.00;;;;;19.91;71.87;100811.78;5042060;28;45378;-73
2023/06/24 04:36:11;;;;;;;;;9.67;9.67;;;;;20.04;71.59;100824.09;5059834;28;46188;-73
2023/06/24 04:38:36;;;;;;;;;8.33;7.33;;;;;20.02;71.11;100820.56;5041943;28;45419;-73
2023/06/24 04:41:02;;;;;;;;;8.67;8.67;;;;;20.04;70.93;100817.03;5059976;28;45481;-72
2023/06/24 04:43:30;;;;;;;;;7.00;7.00;;;;;19.96;71.02;100810.88;5060178;28;45307;-73
2023/06/24 04:45:56;;;;;;;;;9.00;8.00;;;;;19.92;71.82;100830.34;5059511;28;45502;-73
2023/06/24 04:48:26;;;;;;;;;8.67;8.33;;;;;19.80;71.75;100811.84;5059592;28;45165;-73
2023/06/24 04:50:53;;;;;;;;;8.33;8.33;;;;;19.92;71.50;100824.16;5059790;28;45486;-73
2023/06/24 04:53:19;;;;;;;;;10.00;9.33;;;;;20.02;71.58;100815.28;5059999;28;45213;-72
2023/06/24 04:55:44;;;;;;;;;10.67;9.00;;;;;20.01;71.78;100822.31;5059637;28;45395;-73
2023/06/24 04:58:10;;;;;;;;;11.00;10.00;;;;;20.13;71.72;100825.81;5059977;28;45471;-72
2023/06/24 05:00:35;;;;;;;;;9.00;8.67;;;;;20.21;71.13;100824.00;5060209;28;45427;-72
2023/06/24 05:03:01;;;;;;;;;10.67;8.67;;;;;20.17;71.04;100814.31;5059906;28;45506;-72
2023/06/24 05:05:26;;;;;;;;;8.00;7.67;;;;;20.25;71.03;100817.78;5059215;28;45525;-72
2023/06/24 05:07:52;;;;;;;;;10.00;9.00;;;;;20.36;71.09;100821.28;5059616;28;45166;-72
2023/06/24 05:10:18;;;;;;;;;8.00;7.33;;;;;20.55;70.19;100816.75;5059743;28;45650;-72
2023/06/24 05:12:43;;;;;;;;;9.67;8.67;;;;;20.69;70.12;100808.72;5059634;28;45458;-71
2023/06/24 05:15:09;;;;;;;;;9.33;8.33;;;;;20.72;69.91;100808.69;5059714;28;45367;-72
2023/06/24 05:17:35;;;;;;;;;9.67;9.33;;;;;20.66;69.82;100803.41;5059483;28;45397;-73
2023/06/24 05:20:01;;;;;;;;;5.67;4.00;;;;;20.66;70.01;100808.72;5059435;28;45489;-73
2023/06/24 05:22:26;;;;;;;;;9.33;8.33;;;;;20.71;69.98;100804.28;5041470;28;45511;-73
2023/06/24 05:24:52;;;;;;;;;10.00;8.33;;;;;20.78;69.35;100792.69;5059397;28;45517;-73
2023/06/24 05:27:17;;;;;;;;;9.33;8.33;;;;;20.93;68.75;100807.63;5059063;28;45696;-72
2023/06/24 05:29:43;;;;;;;;;9.00;8.00;;;;;21.06;68.65;100796.00;5059370;28;45393;-71
2023/06/24 05:32:08;;;;;;;;;11.00;10.33;;;;;21.20;68.62;100805.63;5059845;28;45391;-72
2023/06/24 05:34:34;;;;;;;;;11.67;11.67;;;;;21.41;68.15;100807.19;5040718;28;46137;-72
2023/06/24 05:37:00;;;;;;;;;8.33;8.33;;;;;21.57;67.45;100814.13;5040843;28;45240;-72
2023/06/24 05:39:26;;;;;;;;;12.67;10.67;;;;;21.59;67.61;100804.34;5058995;28;45161;-72
2023/06/24 05:41:51;;;;;;;;;10.00;8.33;;;;;21.78;67.25;100812.97;5059057;28;45441;-72
2023/06/24 05:44:18;;;;;;;;;9.00;8.00;;;;;21.77;67.38;100803.25;5058877;28;45197;-71
2023/06/24 05:46:44;;;;;;;;;9.00;8.33;;;;;21.82;67.28;100809.38;5040754;28;46157;-72
2023/06/24 05:49:10;;;;;;;;;9.67;9.67;;;;;21.79;67.35;100809.44;5059063;28;45365;-71
2023/06/24 05:51:35;;;;;;;;;10.00;8.33;;;;;21.83;67.48;100807.63;5040599;28;45217;-71
2023/06/24 05:54:01;;;;;;;;;8.00;7.67;;;;;21.82;67.15;100790.75;5058886;28;45364;-72
2023/06/24 05:56:26;;;;;;;;;7.00;6.67;;;;;21.98;67.43;100801.22;5058719;28;45414;-73
2023/06/24 05:58:52;;;;;;;;;7.33;7.00;;;;;22.01;66.83;100786.09;5058776;28;45511;-72
2023/06/24 06:01:18;;;;;;;;;8.00;7.00;;;;;22.68;66.38;100774.50;5058994;28;45451;-72
2023/06/24 06:03:43;;;;;;;;;6.67;6.00;;;;;25.77;59.64;100770.25;5058786;28;45328;-72
2023/06/24 06:06:09;;;;;;;;;8.33;8.00;;;;;28.45;53.96;100763.66;5058622;28;45364;-72
2023/06/24 06:08:34;;;;;;;;;9.00;7.00;;;;;30.41;47.93;100769.34;5040576;28;45409;-72
2023/06/24 06:11:02;;;;;;;;;6.33;6.33;;;;;31.73;44.51;100767.91;5058899;28;45277;-72
2023/06/24 06:13:28;;;;;;;;;7.00;7.00;;;;;33.04;43.19;100769.41;5040284;28;45612;-73
2023/06/24 06:15:54;;;;;;;;;7.00;6.00;;;;;34.29;40.72;100768.91;5058403;28;45471;-73
2023/06/24 06:18:19;;;;;;;;;8.67;7.33;;;;;35.13;37.34;100771.34;5058514;28;45491;-73
2023/06/24 06:20:45;;;;;;;;;9.00;8.00;;;;;35.71;36.66;100779.97;5058976;28;45500;-73
2023/06/24 06:23:10;;;;;;;;;7.67;7.33;;;;;36.46;36.46;100775.47;5058462;28;45549;-73
2023/06/24 06:25:37;;;;;;;;;10.33;10.33;;;;;36.79;33.81;100774.78;5058170;28;45575;-73
2023/06/24 06:28:03;;;;;;;;;8.33;8.00;;;;;37.58;32.98;100772.22;5058538;28;45483;-73
2023/06/24 06:30:29;;;;;;;;;8.00;7.67;;;;;38.36;32.26;100773.19;5040393;28;45623;-74
2023/06/24 06:32:55;;;;;;;;;9.00;8.00;;;;;39.30;31.63;100778.88;5056548;28;46090;-73
2023/06/24 06:35:21;;;;;;;;;7.67;6.00;;;;;39.88;29.77;100781.94;5046646;28;45366;-73
2023/06/24 06:37:51;;;;;;;;;9.67;7.67;;;;;40.44;29.52;100775.03;5057410;28;45454;-72
2023/06/24 06:40:20;;;;;;;;;8.00;8.00;;;;;40.69;28.27;100779.09;5057569;28;45469;-73
2023/06/24 06:42:46;;;;;;;;;8.00;7.67;;;;;41.20;30.00;100785.28;5047413;28;46777;-73
2023/06/24 06:45:12;;;;;;;;;8.00;6.50;;;;;41.53;29.00;100774.81;5057363;28;45517;-73
2023/06/24 06:47:37;;;;;;;;;9.33;9.33;;;;;42.13;27.12;100785.41;5047351;28;45509;-73
2023/06/24 06:50:03;;;;;;;;;10.33;9.00;;;;;42.32;27.66;100776.16;5057452;28;45580;-73
2023/06/24 06:52:29;;;;;;;;;7.67;7.67;;;;;42.45;26.18;100786.81;5047112;28;46702;-73
2023/06/24 06:54:55;;;;;;;;;7.00;7.00;;;;;42.85;26.15;100777.19;5055960;28;45505;-73
2023/06/24 06:57:20;;;;;;;;;8.67;7.33;;;;;43.38;25.71;100779.03;5057006;28;45487;-73
2023/06/24 06:59:46;;;;;;;;;7.00;7.00;;;;;43.57;25.17;100786.16;5057151;28;45517;-74
2023/06/24 07:02:11;;;;;;;;;10.00;10.00;;;;;43.50;25.19;100787.88;5056862;28;46118;-73
2023/06/24 07:04:37;;;;;;;;;9.00;8.00;;;;;43.89;25.33;100784.63;5056806;28;45440;-74
2023/06/24 07:07:03;;;;;;;;;7.67;7.67;;;;;43.84;23.80;100779.63;5055406;28;45454;-74
2023/06/24 07:09:29;;;;;;;;;8.33;8.33;;;;;43.82;24.36;100789.09;5057133;28;45470;-74
2023/06/24 07:11:54;;;;;;;;;9.67;9.67;;;;;44.31;24.59;100782.88;5056908;28;45425;-75
2023/06/24 07:14:20;;;;;;;;;9.00;9.00;;;;;44.73;24.31;100771.78;5047000;28;45432;-76
2023/06/24 07:16:45;;;;;;;;;8.67;8.67;;;;;45.47;23.58;100774.50;5057762;28;45468;-78
2023/06/24 07:19:11;;;;;;;;;8.33;8.00;;;;;45.91;22.75;100782.28;5057013;28;45433;-77
2023/06/24 07:21:38;;;;;;;;;9.00;7.67;;;;;46.25;22.63;100772.78;5048435;28;45469;-78
2023/06/24 07:24:04;;;;;;;;;11.33;10.33;;;;;46.85;22.07;100773.94;5056604;28;45405;-77
2023/06/24 07:26:30;;;;;;;;;8.00;8.00;;;;;47.49;21.42;100775.38;5056756;28;45425;-77
2023/06/24 07:28:59;;;;;;;;;10.00;10.00;;;;;47.88;21.49;100768.72;5056689;28;46179;-77
2023/06/24 07:31:25;;;;;;;;;12.67;12.00;;;;;47.94;20.54;100763.28;5055956;28;46089;-77
2023/06/24 07:33:50;;;;;;;;;9.00;9.00;;;;;48.04;21.06;100764.88;5056112;28;45504;-79
2023/06/24 07:36:16;;;;;;;;;9.00;9.00;;;;;48.41;20.92;100758.25;5046414;28;45453;-79
2023/06/24 07:38:42;;;;;;;;;10.67;9.67;;;;;48.46;20.38;100749.38;5056025;28;45327;-78
2023/06/24 07:41:07;;;;;;;;;10.33;9.33;;;;;48.66;19.82;100744.88;5056030;28;46103;-79
2023/06/24 07:43:33;;;;;;;;;9.00;8.67;;;;;48.89;21.01;100747.44;5056196;28;45447;-78
2023/06/24 07:45:58;;;;;;;;;11.00;11.00;;;;;48.31;19.94;100744.75;5054771;28;45380;-77
2023/06/24 07:48:24;;;;;;;;;10.33;10.33;;;;;48.65;20.06;100731.19;5056245;28;45570;-77
2023/06/24 07:50:49;;;;;;;;;11.00;10.67;;;;;48.99;20.09;100736.00;5055865;28;45925;-78
2023/06/24 07:53:15;;;;;;;;;11.00;10.00;;;;;49.30;19.52;100737.47;5055161;28;46396;-76
2023/06/24 07:55:41;;;;;;;;;10.00;9.67;;;;;49.36;19.20;100737.50;5045302;28;45561;-74
2023/06/24 07:58:06;;;;;;;;;12.67;11.67;;;;;49.79;18.99;100730.94;5045282;28;45519;-78
2023/06/24 08:00:33;;;;;;;;;14.33;14.33;;;;;49.49;19.45;100728.44;5055683;28;45531;-77
2023/06/24 08:02:58;;;;;;;;;11.00;11.00;;;;;50.05;19.35;100732.09;5046111;28;45459;-75
2023/06/24 08:05:24;;;;;;;;;11.67;11.33;;;;;49.93;18.64;100732.69;5047142;28;45501;-79
2023/06/24 08:07:51;;;;;;;;;12.00;11.67;;;;;50.24;19.14;100719.31;5059810;28;45353;-79
2023/06/24 08:10:16;;;;;;;;;11.00;10.67;;;;;50.17;18.46;100713.78;5058047;28;45497;-76
2023/06/24 08:12:43;;;;;;;;;18.67;17.67;;;;;49.78;18.76;100722.81;5057370;28;45569;-75
2023/06/24 08:15:09;;;;;;;;;16.67;16.33;;;;;50.32;18.88;100719.13;5040813;28;45428;-78
2023/06/24 08:17:34;;;;;;;;;10.33;9.67;;;;;49.78;18.75;100698.69;5059623;28;45367;-78
2023/06/24 08:20:01;;;;;;;;;11.33;10.67;;;;;50.08;19.26;100720.53;5059334;28;45533;-75
2023/06/24 08:22:26;;;;;;;;;13.33;12.33;;;;;50.45;19.09;100713.59;5059049;28;45501;-74
2023/06/24 08:24:52;;;;;;;;;12.67;12.67;;;;;50.51;18.51;100715.53;5058160;28;45474;-77
2023/06/24 08:27:17;;;;;;;;;13.67;13.67;;;;;50.16;19.89;100723.16;5060067;28;45277;-76
2023/06/24 08:29:43;;;;;;;;;15.33;14.67;;;;;50.33;19.29;100713.34;5058379;28;46186;-76
2023/06/24 08:32:09;;;;;;;;;11.00;10.33;;;;;50.29;19.13;100705.66;5057940;28;45393;-76
2023/06/24 08:34:34;;;;;;;;;13.00;12.00;;;;;50.33;18.62;100702.22;5039710;28;45495;-75
2023/06/24 08:37:00;;;;;;;;;11.67;11.33;;;;;50.29;19.32;100698.16;5059269;28;45515;-76
2023/06/24 08:39:26;;;;;;;;;13.00;12.33;;;;;50.14;19.35;100703.94;5059306;28;45960;-75
2023/06/24 08:41:52;;;;;;;;;11.67;11.67;;;;;50.57;18.89;100690.72;5060016;28;45473;-76
2023/06/24 08:44:17;;;;;;;;;11.67;11.67;;;;;50.71;19.50;100693.28;5059900;28;45447;-76
2023/06/24 08:46:43;;;;;;;;;11.67;11.33;;;;;50.57;18.32;100685.19;5059965;28;45453;-76
2023/06/24 08:49:30;;;;;;;;;11.67;11.33;;;;;49.67;19.37;100702.03;5058181;28;46312;-76
2023/06/24 08:52:11;;;;;;;;;9.00;7.67;;;;;49.17;19.78;100703.06;5058470;28;45351;-77
2023/06/24 08:54:39;;;;;;;;;12.67;11.67;;;;;49.41;19.39;100697.22;5053369;28;45449;-75
2023/06/24 08:57:06;;;;;;;;;10.33;10.33;;;;;49.71;19.92;100692.22;5058735;28;45416;-75
2023/06/24 08:59:33;;;;;;;;;13.00;12.00;;;;;50.15;19.44;100696.44;5056025;28;45532;-74
2023/06/24 09:01:59;;;;;;;;;11.67;11.67;;;;;50.39;19.69;100685.78;5058807;28;45535;-75
2023/06/24 09:04:24;;;;;;;;;12.33;12.33;;;;;50.35;18.88;100677.88;5048877;28;45375;-75
2023/06/24 09:06:50;;;;;;;;;12.00;12.00;;;;;50.15;19.47;100669.53;5056327;28;45466;-76
2023/06/24 09:09:20;;;;;;;;;10.00;10.00;;;;;50.54;19.92;100675.31;5059135;28;45853;-75
2023/06/24 09:11:56;;;;;;;;;12.67;12.00;;;;;50.47;18.81;100675.34;5059612;28;45331;-75
2023/06/24 09:14:24;;;;;;;;;10.67;10.00;;;;;50.49;19.25;100672.34;5059679;28;45508;-74
2023/06/24 09:16:58;;;;;;;;;9.67;9.33;;;;;50.29;19.70;100673.16;5058782;28;45575;-75
2023/06/24 09:19:28;;;;;;;;;14.33;13.67;;;;;50.26;19.27;100661.63;5058366;28;45516;-73
2023/06/24 09:21:53;;;;;;;;;13.67;13.67;;;;;50.38;20.04;100662.69;5059713;28;45460;-75
2023/06/24 09:24:19;;;;;;;;;10.67;10.67;;;;;50.55;19.36;100654.81;5059505;28;45295;-77
2023/06/24 09:26:44;;;;;;;;;9.00;9.00;;;;;50.62;18.98;100657.56;5059129;28;45335;-78
2023/06/24 09:29:12;;;;;;;;;8.67;8.33;;;;;50.59;17.85;100650.53;5059065;28;45831;-76
2023/06/24 09:31:49;;;;;;;;;8.00;8.00;;;;;50.14;17.75;100641.94;5040677;28;45521;-78
2023/06/24 09:34:16;;;;;;;;;10.33;9.00;;;;;49.84;18.06;100658.09;5058397;28;45268;-79
2023/06/24 09:36:43;;;;;;;;;8.33;8.33;;;;;49.97;18.73;100646.19;5058206;28;45549;-77
2023/06/24 09:39:09;;;;;;;;;7.33;6.67;;;;;49.84;18.27;100642.28;5058066;28;46250;-78
2023/06/24 09:41:36;;;;;;;;;12.67;12.33;;;;;49.86;19.68;100637.38;5057847;28;45586;-77
2023/06/24 09:44:02;;;;;;;;;10.67;10.67;;;;;50.00;19.77;100629.94;5058319;28;45456;-80
2023/06/24 09:46:30;;;;;;;;;18.67;18.33;;;;;49.64;19.99;100627.50;5059104;28;45307;-77
2023/06/24 09:48:56;;;;;;;;;9.67;9.67;;;;;49.48;20.05;100632.34;5057895;28;46157;-78
2023/06/24 09:51:23;;;;;;;;;7.00;7.00;;;;;49.75;19.22;100636.09;5056866;28;45386;-80
2023/06/24 09:53:54;;;;;;;;;10.00;9.00;;;;;49.94;19.60;100623.31;5058807;28;45511;-78
2023/06/24 09:56:20;;;;;;;;;6.00;5.67;;;;;49.64;17.94;100624.72;5057023;28;45783;-77
2023/06/24 09:58:47;;;;;;;;;5.00;5.00;;;;;49.30;17.31;100612.63;5057181;28;46129;-80
2023/06/24 10:01:13;;;;;;;;;8.00;7.67;;;;;49.47;18.21;100610.38;5056860;28;45270;-78
2023/06/24 10:03:39;;;;;;;;;8.00;8.00;;;;;49.60;19.58;100609.53;5058231;28;45299;-80
2023/06/24 10:06:06;;;;;;;;;7.00;6.33;;;;;49.18;18.29;100615.13;5058100;28;45448;-79
2023/06/24 10:08:32;;;;;;;;;9.67;9.00;;;;;48.99;17.54;100608.41;5056436;28;45740;-77
2023/06/24 10:10:59;;;;;;;;;5.00;5.00;;;;;48.41;18.06;100591.16;5056352;28;45800;-77
2023/06/24 10:13:26;;;;;;;;;4.67;4.00;;;;;48.09;18.15;100587.88;5056985;28;45576;-77
2023/06/24 10:15:52;;;;;;;;;4.00;4.00;;;;;47.52;18.14;100592.38;5057631;28;45419;-78
2023/06/24 10:18:35;;;;;;;;;4.33;4.33;;;;;46.17;18.80;100574.00;5057176;28;46291;-83
2023/06/24 10:21:01;;;;;;;;;6.67;6.33;;;;;45.82;19.08;100579.09;5056040;28;45388;-81
2023/06/24 10:23:49;;;;;;;;;5.00;5.00;;;;;45.29;19.72;100580.78;5057747;28;45396;-81
2023/06/24 10:26:28;;;;;;;;;4.67;3.67;;;;;44.16;20.07;100574.31;5049817;28;45425;-79
2023/06/24 10:29:05;;;;;;;;;5.67;4.33;;;;;43.68;20.85;100568.56;5057583;28;45362;-77
2023/06/24 10:31:40;;;;;;;;;5.67;5.67;;;;;42.83;21.40;100579.53;5057053;28;45280;-80
2023/06/24 10:34:47;;;;;;;;;5.33;5.00;;;;;42.23;22.59;100571.22;5057287;28;45366;-77
2023/06/24 10:37:25;;;;;;;;;4.00;3.67;;;;;41.78;23.15;100563.94;5056028;28;45506;-80
2023/06/24 10:40:00;;;;;;;;;6.00;5.00;;;;;41.65;22.75;100548.72;5058459;28;45351;-78
2023/06/24 10:42:42;;;;;;;;;5.00;4.00;;;;;41.48;22.78;100546.81;5057746;28;45395;-79
2023/06/24 10:45:12;;;;;;;;;7.00;6.00;;;;;41.14;23.61;100547.41;5060080;28;45511;-78
2023/06/24 10:47:41;;;;;;;;;5.00;5.00;;;;;41.03;23.55;100539.38;5057807;28;45443;-79
2023/06/24 10:50:08;;;;;;;;;4.00;3.33;;;;;40.76;23.63;100538.38;5058423;28;46077;-80
2023/06/24 10:53:01;;;;;;;;;4.67;4.67;;;;;39.91;24.39;100553.75;5056304;28;45370;-80
2023/06/24 10:55:27;;;;;;;;;5.33;4.67;;;;;39.09;25.21;100550.25;5055439;28;45538;-80
2023/06/24 10:57:52;;;;;;;;;6.00;6.00;;;;;39.17;25.56;100541.38;5056794;28;45607;-80
2023/06/24 11:00:21;;;;;;;;;4.33;4.33;;;;;38.98;25.66;100551.25;5057574;28;45441;-80
2023/06/24 11:02:46;;;;;;;;;7.33;7.33;;;;;38.65;25.36;100551.50;5057832;28;45345;-79
2023/06/24 11:05:12;;;;;;;;;6.00;6.00;;;;;37.86;26.86;100517.31;5057689;28;45397;-80
2023/06/24 11:07:38;;;;;;;;;6.33;6.00;;;;;37.91;27.41;100520.53;5057578;28;45446;-80
2023/06/24 11:10:05;;;;;;;;;6.33;6.00;;;;;38.13;26.43;100543.25;5057513;28;45511;-80
2023/06/24 11:12:36;;;;;;;;;6.00;6.00;;;;;37.81;27.27;100531.34;5058371;28;45774;-78
2023/06/24 11:15:06;;;;;;;;;6.00;5.67;;;;;36.73;28.79;100538.44;5054119;28;45265;-77
2023/06/24 11:17:33;;;;;;;;;6.00;6.00;;;;;36.16;29.44;100526.59;5057452;28;45432;-78
2023/06/24 11:19:59;;;;;;;;;7.33;7.00;;;;;35.64;30.31;100537.69;5057835;28;46091;-78
2023/06/24 11:22:26;;;;;;;;;9.00;8.33;;;;;35.18;30.07;100526.69;5057277;28;45457;-79